Flag for Japan

Past Weather in 33°30'38.9"N, 133°35'04.8"E, Japan — Yesterday and Last 2 Weeks

Currently: 70 °F. Partly sunny. (Weather station: Kochi Airport, Japan). See more current weather

Past Weather in 33°30'38.9"N, 133°35'04.8"E — Graph

°F

33°30'38.9"N, 133°35'04.8"E Temperature Yesterday

Maximum temperature yesterday: 73 °F (at 1:00 pm)
Minimum temperature yesterday: 52 °F (at 3:00 am)
Average temperature yesterday: 64 °F

High & Low Weather Summary for the Past Weeks

 TemperatureHumidityPressure
High75 °F (May 7, 10:00 am)100% (May 6, 5:24 pm)30.21 "Hg (May 6, 5:24 pm)
Low52 °F (May 10, 2:00 am)27% (May 9, 4:00 pm)29.65 "Hg (May 16, 5:00 am)
Average66 °F71%29.96 "Hg
* Reported May 3 7:00 pm — May 18 7:00 pm, 33°30'38.9"N, 133°35'04.8"E. Weather by CustomWeather, © 2024

Note: Actual official high and low records may vary slightly from our data, if they occured in-between our weather recording intervals... More about our weather records

33°30'38.9"N, 133°35'04.8"E Weather History for the Previous 24 Hours

Scroll right to see more
 ConditionsComfort  
Time TempWeatherWind HumidityBarometerVisibility
7:00 pm
Sat, May 18
70 °FPartly sunny.2 mph78%30.04 "HgN/A
6:00 pm70 °FPartly sunny.3 mph78%30.07 "HgN/A
5:00 pm72 °FPartly sunny.3 mph73%30.07 "HgN/A
4:00 pm73 °FPartly sunny.3 mph74%30.07 "HgN/A
3:00 pm73 °FPassing clouds.8 mph74%30.07 "HgN/A
2:00 pm73 °FPassing clouds.6 mph69%30.07 "HgN/A
1:00 pm73 °FPassing clouds.3 mph65%30.09 "HgN/A
12:00 pm72 °FPassing clouds.6 mph69%30.09 "HgN/A
11:00 am72 °FPassing clouds.7 mph65%30.12 "HgN/A
10:00 am72 °FPassing clouds.6 mph57%30.09 "HgN/A
9:00 am73 °FSunny.2 mph47%30.09 "Hg10 mi
8:00 am68 °FPassing clouds.6 mph53%30.09 "HgN/A
7:00 am64 °FSunny.8 mph60%30.12 "Hg10 mi
6:00 am59 °FClear.7 mph72%30.09 "HgN/A
5:00 am57 °FClear.10 mph77%30.09 "HgN/A
4:00 am57 °FClear.10 mph77%30.07 "HgN/A
3:00 am57 °FClear.10 mph82%30.04 "HgN/A
2:00 am57 °FClear.8 mph82%30.07 "HgN/A
1:00 am61 °FClear.6 mph68%30.07 "HgN/A
12:00 am59 °FClear.8 mph82%30.07 "HgN/A
11:00 pm
Fri, May 17
63 °FClear.8 mph73%30.07 "HgN/A
10:00 pm63 °FClear.7 mph77%30.09 "HgN/A
9:00 pm64 °FClear.5 mph73%30.07 "HgN/A
8:00 pm66 °FPassing clouds.6 mph68%30.04 "HgN/A
Weather by CustomWeather, © 2024

See weather overview